Thunder radar more information blitzortung!


Radar de pluja more information rain snow radar


Visita la nostra xarxa de llocs de meteo:

Template documentation
and downloads

And another site



No particular awareness of the weather is required.    There are no Weather-warnings

Pagina Historial Weather Underground text

Diari Resum Cap La, TWC- Unitats:  Mètric    Imperial   Tant
« Previous Dia
SegĂźent Dia »
Diari Setmana Mensual Anual Personalitzada
  Maxima: Minima: Media:
Temperatura: -17.8 °C -17.3 °C -15.6 °C
Punt de rosada: -17.8 °C -21.4 °C -19.8 °C
Humitat: Humidity % 42 % 57 %
Wind Speed: 0 km/h 0 km/h 2.4 km/h
RĂ fegues de vent: 0 km/h - -
Vent:- - SE
Pression baro: 0 hPa 34770.8 hPa -
Precipitacions: 0 mm    
Historical Graphs
 
 
Dades de taula per Cap La, TWC-
Temps Temperatura Punt de rosada Pression baro Vent Wind Speed RĂ fegues de vent Humitat Rainfall Rate (Hourly)
-17.8 °C -17.8 °C 0 hPa Calm     Humidity % 0 mm
00:04 -15.2 °C -19 °C 34804.7 hPa Calm     61 % 0 mm
00:09 -15.2 °C -19.1 °C 34804.7 hPa Calm     60 % 0 mm
00:14 -15.2 °C -19.1 °C 34804.7 hPa Calm     60 % 0 mm
00:19 -15.2 °C -19.2 °C 34804.7 hPa Calm     60 % 0 mm
00:24 -15.2 °C -19.1 °C 34804.7 hPa Calm     60 % 0 mm
00:29 -15.2 °C -19.1 °C 34804.7 hPa Calm     60 % 0 mm
00:34 -15.1 °C -19.1 °C 34804.7 hPa Calm     60 % 0 mm
00:39 -15.2 °C -19.1 °C 34804.7 hPa Calm     60 % 0 mm
00:44 -15.2 °C -19 °C 34804.7 hPa Calm     61 % 0 mm
00:49 -15.2 °C -19 °C 34804.7 hPa Calm     61 % 0 mm
00:54 -15.2 °C -19.1 °C 34804.7 hPa Calm     61 % 0 mm
00:59 -15.2 °C -19.1 °C 34804.7 hPa Calm     61 % 0 mm
01:04 -15.3 °C -19.1 °C 34804.7 hPa Calm     61 % 0 mm
01:09 -15.3 °C -19.1 °C 34804.7 hPa ENE 6 km/h   61 % 0 mm
01:14 -15.3 °C -19.2 °C 34804.7 hPa ENE 3.1 km/h 3.1 km/h 61 % 0 mm
01:19 -15.4 °C -19.3 °C 34804.7 hPa ENE 3.1 km/h   61 % 0 mm
01:24 -15.5 °C -19.3 °C 34804.7 hPa NE 3.1 km/h   61 % 0 mm
01:29 -15.6 °C -19.6 °C 34804.7 hPa Calm     60 % 0 mm
01:34 -15.7 °C -19.6 °C 34804.7 hPa Calm     60 % 0 mm
01:39 -15.8 °C -19.7 °C 34804.7 hPa WSW 3.1 km/h 2.3 km/h 60 % 0 mm
01:44 -15.8 °C -19.9 °C 34804.7 hPa WSW 6 km/h 3.1 km/h 59 % 0 mm
01:49 -15.8 °C -19.8 °C 34804.7 hPa Calm     60 % 0 mm
01:54 -15.9 °C -19.8 °C 34804.7 hPa Calm     60 % 0 mm
01:59 -15.9 °C -19.8 °C 34804.7 hPa SW 2.3 km/h   60 % 0 mm
02:04 -15.9 °C -19.8 °C 34804.7 hPa WSW 3.1 km/h   60 % 0 mm
02:09 -15.9 °C -19.7 °C 34804.7 hPa SSE 3.1 km/h   61 % 0 mm
02:14 -16 °C -19.9 °C 34804.7 hPa WSW 3.1 km/h   60 % 0 mm
02:19 -16 °C -19.9 °C 34804.7 hPa WSW 6 km/h 4.2 km/h 60 % 0 mm
02:24 -16 °C -19.8 °C 34804.7 hPa Calm     61 % 0 mm
02:29 -16.1 °C -19.8 °C 34770.8 hPa Calm     61 % 0 mm
02:34 -16.1 °C -19.8 °C 34770.8 hPa Calm     61 % 0 mm
02:39 -16.1 °C -19.9 °C 34770.8 hPa Calm     61 % 0 mm
02:44 -16.1 °C -20 °C 34770.8 hPa West 3.1 km/h 3.7 km/h 60 % 0 mm
02:49 -16.1 °C -20 °C 34770.8 hPa SW 6 km/h   60 % 0 mm
02:54 -16.1 °C -20 °C 34770.8 hPa Calm     60 % 0 mm
02:59 -16.2 °C -19.9 °C 34770.8 hPa Calm     61 % 0 mm
03:04 -16.2 °C -20 °C 34770.8 hPa Calm     61 % 0 mm
03:09 -16.2 °C -20 °C 34770.8 hPa Calm     61 % 0 mm
03:14 -16.3 °C -20.1 °C 34770.8 hPa Calm     61 % 0 mm
03:19 -16.3 °C -20.1 °C 34770.8 hPa Calm     61 % 0 mm
03:24 -16.3 °C -20.1 °C 34770.8 hPa Calm     61 % 0 mm
03:29 -16.3 °C -20.1 °C 34770.8 hPa Calm     61 % 0 mm
03:34 -16.3 °C -20.1 °C 34770.8 hPa South 3.1 km/h   61 % 0 mm
03:39 -16.3 °C -20.1 °C 34770.8 hPa Calm     61 % 0 mm
03:44 -16.4 °C -20.2 °C 34770.8 hPa Calm     61 % 0 mm
03:49 -16.4 °C -20.2 °C 34770.8 hPa Calm     61 % 0 mm
03:54 -16.5 °C -20.2 °C 34770.8 hPa Calm     61 % 0 mm
03:59 -16.5 °C -20.2 °C 34770.8 hPa Calm     61 % 0 mm
04:04 -16.5 °C -20.2 °C 34770.8 hPa Calm     61 % 0 mm
04:09 -16.6 °C -20.3 °C 34770.8 hPa Calm     61 % 0 mm
04:14 -16.6 °C -20.3 °C 34770.8 hPa Calm     61 % 0 mm
04:19 -16.5 °C -20.2 °C 34770.8 hPa Calm     61 % 0 mm
04:24 -16.5 °C -20.2 °C 34770.8 hPa Calm     61 % 0 mm
04:29 -16.5 °C -20.2 °C 34770.8 hPa Calm     61 % 0 mm
04:34 -16.4 °C -20.2 °C 34770.8 hPa Calm     61 % 0 mm
04:39 -16.4 °C -20.2 °C 34770.8 hPa Calm     61 % 0 mm
04:44 -16.6 °C -20.4 °C 34770.8 hPa Calm     60 % 0 mm
04:49 -16.6 °C -20.3 °C 34770.8 hPa Calm     61 % 0 mm
04:54 -16.6 °C -20.4 °C 34770.8 hPa Calm     61 % 0 mm
04:59 -16.6 °C -20.3 °C 34770.8 hPa NNE 3.1 km/h 3.1 km/h 61 % 0 mm
05:04 -16.6 °C -20.3 °C 34770.8 hPa NNW 2.3 km/h   61 % 0 mm
05:09 -16.5 °C -20.4 °C 34770.8 hPa NNW 3.1 km/h   60 % 0 mm
05:14 -16.4 °C -20.3 °C 34770.8 hPa Calm     60 % 0 mm
05:19 -16.5 °C -20.4 °C 34770.8 hPa Calm     60 % 0 mm
05:24 -16.6 °C -20.6 °C 34770.8 hPa Calm     59 % 0 mm
05:29 -16.6 °C -20.6 °C 34770.8 hPa Calm     59 % 0 mm
05:34 -16.6 °C -20.6 °C 34770.8 hPa Calm     59 % 0 mm
05:39 -16.7 °C -20.8 °C 34770.8 hPa SW 3.1 km/h   58 % 0 mm
05:44 -16.7 °C -20.7 °C 34770.8 hPa Calm     59 % 0 mm
05:49 -16.8 °C -20.8 °C 34770.8 hPa NNE 3.1 km/h   59 % 0 mm
05:54 -16.8 °C -20.8 °C 34770.8 hPa Calm     59 % 0 mm
05:59 -16.8 °C -20.8 °C 34770.8 hPa Calm     59 % 0 mm
06:04 -16.9 °C -20.9 °C 34770.8 hPa Calm     59 % 0 mm
06:09 -16.8 °C -20.8 °C 34770.8 hPa Calm     59 % 0 mm
06:14 -16.8 °C -20.8 °C 34770.8 hPa Calm     59 % 0 mm
06:19 -16.8 °C -20.8 °C 34770.8 hPa Calm     59 % 0 mm
06:24 -16.9 °C -21 °C 34770.8 hPa NNE 3.1 km/h   58 % 0 mm
06:29 -16.9 °C -21 °C 34770.8 hPa Calm     58 % 0 mm
06:34 -16.9 °C -21 °C 34770.8 hPa Calm     58 % 0 mm
06:39 -16.9 °C -21 °C 34770.8 hPa Calm     58 % 0 mm
06:44 -16.9 °C -21.1 °C 34770.8 hPa Calm     57 % 0 mm
06:49 -16.9 °C -21.1 °C 34770.8 hPa Calm     58 % 0 mm
06:54 -17 °C -21.1 °C 34770.8 hPa NNW 6 km/h   58 % 0 mm
06:59 -17 °C -21.1 °C 34770.8 hPa NNW 3.1 km/h   58 % 0 mm
07:04 -17.1 °C -21.2 °C 34770.8 hPa Calm     58 % 0 mm
07:09 -17.1 °C -21.2 °C 34770.8 hPa Calm     58 % 0 mm
07:14 -17.1 °C -21.3 °C 34770.8 hPa SW 3.7 km/h 3.7 km/h 57 % 0 mm
07:19 -17.2 °C -21.4 °C 34770.8 hPa SW 3.1 km/h   57 % 0 mm
07:24 -17.2 °C -21.3 °C 34770.8 hPa Calm     58 % 0 mm
07:29 -17.3 °C -21.3 °C 34770.8 hPa Calm   2.3 km/h 58 % 0 mm
07:34 -17.3 °C -21.3 °C 34770.8 hPa ENE 3.1 km/h   58 % 0 mm
07:39 -17.3 °C -21.3 °C 34770.8 hPa Calm     58 % 0 mm
07:44 -17.3 °C -21.3 °C 34770.8 hPa Calm     58 % 0 mm
07:49 -17.3 °C -21.2 °C 34770.8 hPa Calm     59 % 0 mm
07:54 -17.3 °C -21.3 °C 34770.8 hPa Calm     58 % 0 mm
07:59 -17.2 °C -21.2 °C 34804.7 hPa Calm     59 % 0 mm
08:04 -17.2 °C -21.2 °C 34804.7 hPa Calm     59 % 0 mm
08:09 -17.1 °C -21.1 °C 34804.7 hPa Calm     59 % 0 mm
08:14 -17.1 °C -21 °C 34804.7 hPa Calm     59 % 0 mm
08:19 -16.9 °C -20.9 °C 34804.7 hPa Calm     59 % 0 mm
08:24 -17 °C -20.9 °C 34804.7 hPa Calm     59 % 0 mm
08:29 -16.9 °C -20.9 °C 34804.7 hPa Calm     59 % 0 mm
08:34 -17 °C -21.1 °C 34804.7 hPa Calm     58 % 0 mm
08:39 -16.9 °C -21.1 °C 34804.7 hPa Calm     58 % 0 mm
08:44 -16.8 °C -20.9 °C 34804.7 hPa Calm     58 % 0 mm
08:49 -16.7 °C -20.8 °C 34804.7 hPa Calm     58 % 0 mm
08:54 -16.6 °C -20.7 °C 34804.7 hPa Calm     58 % 0 mm
08:59 -16.5 °C -20.7 °C 34804.7 hPa SSW 3.7 km/h 3.1 km/h 57 % 0 mm
09:04 -16.4 °C -20.7 °C 34804.7 hPa SW 9 km/h 6.3 km/h 57 % 0 mm
09:09 -16.3 °C -20.6 °C 34804.7 hPa SSW 3.1 km/h   57 % 0 mm
09:14 -16.2 °C -20.6 °C 34804.7 hPa South 5.1 km/h   56 % 0 mm
09:19 -15.8 °C -20.2 °C 34804.7 hPa SSW 3.7 km/h 2.3 km/h 56 % 0 mm
09:24 -15.5 °C -19.9 °C 34804.7 hPa SSW 6 km/h   56 % 0 mm
09:29 -15.4 °C -19.9 °C 34804.7 hPa South 4.2 km/h   56 % 0 mm
09:34 -15.2 °C -19.8 °C 34804.7 hPa SSE 3.7 km/h 3.7 km/h 55 % 0 mm
09:39 -15 °C -19.6 °C 34804.7 hPa SE 9 km/h   55 % 0 mm
09:44 -14.9 °C -19.5 °C 34804.7 hPa South 6 km/h 2.3 km/h 55 % 0 mm
09:49 -14.7 °C -19.4 °C 34804.7 hPa SE 3.1 km/h   54 % 0 mm
09:54 -14.4 °C -19.2 °C 34804.7 hPa ENE 6 km/h 3.1 km/h 54 % 0 mm
09:59 -14.4 °C -19.4 °C 34804.7 hPa NNE 6 km/h 3.1 km/h 53 % 0 mm
10:04 -14.3 °C -19.3 °C 34804.7 hPa NNE 6 km/h 3.7 km/h 53 % 0 mm
10:09 -14.2 °C -19.2 °C 34804.7 hPa ENE 6 km/h 4.2 km/h 53 % 0 mm
10:14 -14.2 °C -19.1 °C 34804.7 hPa NE 6 km/h 5.6 km/h 53 % 0 mm
10:19 -14.1 °C -19.2 °C 34804.7 hPa ENE 6 km/h 4.2 km/h 52 % 0 mm
10:24 -13.9 °C -18.8 °C 34804.7 hPa WNW 6 km/h   53 % 0 mm
10:29 -13.8 °C -18.9 °C 34804.7 hPa NNE 6 km/h 5.6 km/h 52 % 0 mm
10:34 -13.9 °C -19 °C 34804.7 hPa NE 8 km/h 6.3 km/h 52 % 0 mm
10:39 -13.8 °C -18.9 °C 34804.7 hPa East 6.8 km/h 5.6 km/h 52 % 0 mm
10:44 -13.6 °C -18.9 °C 34804.7 hPa ENE 6 km/h 4.2 km/h 51 % 0 mm
10:49 -13.3 °C -18.7 °C 34804.7 hPa ENE 4.2 km/h 3.7 km/h 51 % 0 mm
10:54 -13.3 °C -18.6 °C 34804.7 hPa ENE 6.8 km/h 5.1 km/h 51 % 0 mm
10:59 -13.2 °C -18.5 °C 34804.7 hPa East 6 km/h 3.1 km/h 51 % 0 mm
11:04 -12.9 °C -18.3 °C 34804.7 hPa East 8 km/h 3.7 km/h 51 % 0 mm
11:09 -12.8 °C -18.1 °C 34804.7 hPa East 6 km/h 4.2 km/h 51 % 0 mm
11:14 -12.7 °C -18.2 °C 34804.7 hPa East 9 km/h 5.6 km/h 50 % 0 mm
11:19 -12.5 °C -18 °C 34804.7 hPa ESE 3.1 km/h 3.7 km/h 50 % 0 mm
11:24 -12.4 °C -17.9 °C 34804.7 hPa ESE 9 km/h 5.6 km/h 50 % 0 mm
11:29 -12.2 °C -17.9 °C 34804.7 hPa SE 3.1 km/h 2.3 km/h 49 % 0 mm
11:34 -12 °C -17.7 °C 34804.7 hPa East 8.5 km/h 4.2 km/h 49 % 0 mm
11:39 -12.1 °C -17.9 °C 34804.7 hPa NNE 9 km/h 7.6 km/h 48 % 0 mm
11:44 -11.9 °C -17.7 °C 34770.8 hPa NNW 9 km/h 6.8 km/h 48 % 0 mm
11:49 -11.9 °C -17.9 °C 34770.8 hPa ENE 11.9 km/h 6.8 km/h 47 % 0 mm
11:54 -11.7 °C -17.7 °C 34770.8 hPa East 7.6 km/h 6.8 km/h 47 % 0 mm
11:59 -11.6 °C -17.6 °C 34770.8 hPa WNW 6 km/h 3.1 km/h 47 % 0 mm
12:04 -11.4 °C -17.3 °C 34770.8 hPa WSW 6 km/h 4.2 km/h 48 % 0 mm
12:09 -11.3 °C -17.4 °C 34770.8 hPa NE 6 km/h 3.7 km/h 47 % 0 mm
12:14 -11.2 °C -17.4 °C 34770.8 hPa SE 9 km/h 5.1 km/h 46 % 0 mm
12:19 -10.9 °C -17.4 °C 34770.8 hPa NNE 9 km/h 6.8 km/h 45 % 0 mm
12:24 -10.9 °C -17.6 °C 34770.8 hPa NNE 6.3 km/h 5.1 km/h 44 % 0 mm
12:29 -10.9 °C -17.9 °C 34770.8 hPa East 11.9 km/h 8 km/h 42 % 0 mm
12:34 -10.9 °C -17.7 °C 34770.8 hPa South 6 km/h   43 % 0 mm
Meteo Sesrovires
Elogis d' Weather Underground - 1.25 mb

Guio original per  Jim McMurry - jmcmurry@mwt.net Adaptat per a la plantilla per  Wim van der Kuil - Leuven-Template.eu

Trobareu la nostra informacio del temps tambe a:

Weather Underground

AWEKAS